sensor_id;sensor_type;location;lat;lon;timestamp;P1;durP1;ratioP1;P2;durP2;ratioP2
7545;SDS011;3814;51.454;12.616;2022-08-30T00:00:14;9.82;;;6.13;;
7545;SDS011;3814;51.454;12.616;2022-08-30T00:03:00;10.23;;;5.55;;
7545;SDS011;3814;51.454;12.616;2022-08-30T00:05:26;13.65;;;7.20;;
7545;SDS011;3814;51.454;12.616;2022-08-30T00:07:52;12.13;;;7.03;;
7545;SDS011;3814;51.454;12.616;2022-08-30T00:10:18;12.65;;;7.13;;
7545;SDS011;3814;51.454;12.616;2022-08-30T00:12:43;12.15;;;7.10;;
7545;SDS011;3814;51.454;12.616;2022-08-30T00:15:09;11.68;;;7.10;;
7545;SDS011;3814;51.454;12.616;2022-08-30T00:17:35;10.88;;;7.35;;
7545;SDS011;3814;51.454;12.616;2022-08-30T00:20:01;12.65;;;7.53;;
7545;SDS011;3814;51.454;12.616;2022-08-30T00:22:28;13.20;;;7.85;;
7545;SDS011;3814;51.454;12.616;2022-08-30T00:24:54;15.23;;;7.57;;
7545;SDS011;3814;51.454;12.616;2022-08-30T00:27:20;15.05;;;7.72;;
7545;SDS011;3814;51.454;12.616;2022-08-30T00:29:45;11.60;;;7.07;;
7545;SDS011;3814;51.454;12.616;2022-08-30T00:32:10;11.05;;;6.78;;
7545;SDS011;3814;51.454;12.616;2022-08-30T00:34:36;12.40;;;6.70;;
7545;SDS011;3814;51.454;12.616;2022-08-30T00:37:01;13.25;;;6.85;;
7545;SDS011;3814;51.454;12.616;2022-08-30T00:39:26;11.68;;;6.22;;
7545;SDS011;3814;51.454;12.616;2022-08-30T00:41:52;9.30;;;6.20;;
7545;SDS011;3814;51.454;12.616;2022-08-30T00:44:17;10.93;;;7.13;;
7545;SDS011;3814;51.454;12.616;2022-08-30T00:46:42;11.40;;;6.90;;
7545;SDS011;3814;51.454;12.616;2022-08-30T00:49:08;11.50;;;6.40;;
7545;SDS011;3814;51.454;12.616;2022-08-30T00:51:35;10.60;;;6.50;;
7545;SDS011;3814;51.454;12.616;2022-08-30T00:54:00;10.60;;;6.35;;
7545;SDS011;3814;51.454;12.616;2022-08-30T00:56:27;11.00;;;6.80;;
7545;SDS011;3814;51.454;12.616;2022-08-30T00:58:54;10.40;;;6.50;;
7545;SDS011;3814;51.454;12.616;2022-08-30T01:01:21;12.02;;;6.97;;
7545;SDS011;3814;51.454;12.616;2022-08-30T01:03:47;10.77;;;6.78;;
7545;SDS011;3814;51.454;12.616;2022-08-30T01:06:13;11.05;;;6.63;;
7545;SDS011;3814;51.454;12.616;2022-08-30T01:08:39;12.20;;;6.95;;
7545;SDS011;3814;51.454;12.616;2022-08-30T01:11:05;9.77;;;6.20;;
7545;SDS011;3814;51.454;12.616;2022-08-30T01:13:30;11.82;;;6.60;;
7545;SDS011;3814;51.454;12.616;2022-08-30T01:15:56;9.50;;;5.88;;
7545;SDS011;3814;51.454;12.616;2022-08-30T01:18:24;9.38;;;6.20;;
7545;SDS011;3814;51.454;12.616;2022-08-30T01:20:52;10.15;;;6.00;;
7545;SDS011;3814;51.454;12.616;2022-08-30T01:23:22;11.40;;;6.30;;
7545;SDS011;3814;51.454;12.616;2022-08-30T01:25:48;10.98;;;6.03;;
7545;SDS011;3814;51.454;12.616;2022-08-30T01:28:17;10.15;;;6.00;;
7545;SDS011;3814;51.454;12.616;2022-08-30T01:30:44;10.60;;;6.20;;
7545;SDS011;3814;51.454;12.616;2022-08-30T01:33:10;9.18;;;6.53;;
7545;SDS011;3814;51.454;12.616;2022-08-30T01:35:58;9.13;;;5.65;;
7545;SDS011;3814;51.454;12.616;2022-08-30T01:38:23;8.52;;;5.60;;
7545;SDS011;3814;51.454;12.616;2022-08-30T01:40:55;8.95;;;5.70;;
7545;SDS011;3814;51.454;12.616;2022-08-30T01:43:23;9.88;;;5.95;;
7545;SDS011;3814;51.454;12.616;2022-08-30T01:45:49;8.80;;;5.55;;
7545;SDS011;3814;51.454;12.616;2022-08-30T01:48:14;11.75;;;6.22;;
7545;SDS011;3814;51.454;12.616;2022-08-30T01:50:40;8.98;;;6.10;;
7545;SDS011;3814;51.454;12.616;2022-08-30T01:53:05;12.07;;;6.72;;
7545;SDS011;3814;51.454;12.616;2022-08-30T01:55:31;12.13;;;6.75;;
7545;SDS011;3814;51.454;12.616;2022-08-30T01:57:56;9.57;;;6.18;;
7545;SDS011;3814;51.454;12.616;2022-08-30T02:00:22;11.23;;;6.32;;
7545;SDS011;3814;51.454;12.616;2022-08-30T02:02:47;13.70;;;6.65;;
7545;SDS011;3814;51.454;12.616;2022-08-30T02:05:13;13.60;;;6.50;;
7545;SDS011;3814;51.454;12.616;2022-08-30T02:07:38;11.77;;;6.50;;
7545;SDS011;3814;51.454;12.616;2022-08-30T02:10:04;10.95;;;6.38;;
7545;SDS011;3814;51.454;12.616;2022-08-30T02:12:29;9.57;;;5.70;;
7545;SDS011;3814;51.454;12.616;2022-08-30T02:14:55;12.10;;;6.50;;
7545;SDS011;3814;51.454;12.616;2022-08-30T02:17:20;12.95;;;5.85;;
7545;SDS011;3814;51.454;12.616;2022-08-30T02:19:46;9.30;;;5.88;;
7545;SDS011;3814;51.454;12.616;2022-08-30T02:22:11;11.13;;;6.47;;
7545;SDS011;3814;51.454;12.616;2022-08-30T02:24:37;10.90;;;6.82;;
7545;SDS011;3814;51.454;12.616;2022-08-30T02:27:03;10.05;;;6.60;;
7545;SDS011;3814;51.454;12.616;2022-08-30T02:29:29;9.50;;;5.97;;
7545;SDS011;3814;51.454;12.616;2022-08-30T02:31:54;9.10;;;6.00;;
7545;SDS011;3814;51.454;12.616;2022-08-30T02:34:20;10.32;;;6.95;;
7545;SDS011;3814;51.454;12.616;2022-08-30T02:36:46;13.27;;;6.18;;
7545;SDS011;3814;51.454;12.616;2022-08-30T02:39:12;13.65;;;7.85;;
7545;SDS011;3814;51.454;12.616;2022-08-30T02:41:38;13.52;;;6.97;;
7545;SDS011;3814;51.454;12.616;2022-08-30T02:44:04;13.15;;;7.35;;
7545;SDS011;3814;51.454;12.616;2022-08-30T02:46:30;12.85;;;7.57;;
7545;SDS011;3814;51.454;12.616;2022-08-30T02:48:56;12.23;;;7.20;;
7545;SDS011;3814;51.454;12.616;2022-08-30T02:51:21;10.38;;;6.30;;
7545;SDS011;3814;51.454;12.616;2022-08-30T02:53:47;10.95;;;6.55;;
7545;SDS011;3814;51.454;12.616;2022-08-30T02:56:13;12.63;;;6.32;;
7545;SDS011;3814;51.454;12.616;2022-08-30T02:58:38;11.48;;;6.72;;
7545;SDS011;3814;51.454;12.616;2022-08-30T03:01:06;11.13;;;6.65;;
7545;SDS011;3814;51.454;12.616;2022-08-30T03:03:33;11.52;;;6.57;;
7545;SDS011;3814;51.454;12.616;2022-08-30T03:05:58;9.88;;;6.50;;
7545;SDS011;3814;51.454;12.616;2022-08-30T03:08:23;10.55;;;6.82;;
7545;SDS011;3814;51.454;12.616;2022-08-30T03:10:49;14.43;;;7.95;;
7545;SDS011;3814;51.454;12.616;2022-08-30T03:13:14;11.65;;;6.45;;
7545;SDS011;3814;51.454;12.616;2022-08-30T03:15:40;12.13;;;7.60;;
7545;SDS011;3814;51.454;12.616;2022-08-30T03:18:05;13.30;;;6.45;;
7545;SDS011;3814;51.454;12.616;2022-08-30T03:20:31;11.70;;;7.03;;
7545;SDS011;3814;51.454;12.616;2022-08-30T03:22:57;12.73;;;7.47;;
7545;SDS011;3814;51.454;12.616;2022-08-30T03:25:22;11.77;;;7.10;;
7545;SDS011;3814;51.454;12.616;2022-08-30T03:27:48;11.95;;;6.93;;
7545;SDS011;3814;51.454;12.616;2022-08-30T03:30:15;15.85;;;7.82;;
7545;SDS011;3814;51.454;12.616;2022-08-30T03:32:41;12.00;;;7.30;;
7545;SDS011;3814;51.454;12.616;2022-08-30T03:35:06;11.85;;;6.60;;
7545;SDS011;3814;51.454;12.616;2022-08-30T03:37:33;12.00;;;6.15;;
7545;SDS011;3814;51.454;12.616;2022-08-30T03:39:59;12.07;;;6.40;;
7545;SDS011;3814;51.454;12.616;2022-08-30T03:42:24;10.52;;;6.50;;
7545;SDS011;3814;51.454;12.616;2022-08-30T03:44:50;10.15;;;6.57;;
7545;SDS011;3814;51.454;12.616;2022-08-30T03:47:15;11.70;;;6.90;;
7545;SDS011;3814;51.454;12.616;2022-08-30T03:49:41;11.77;;;7.97;;
7545;SDS011;3814;51.454;12.616;2022-08-30T03:52:06;11.00;;;6.07;;
7545;SDS011;3814;51.454;12.616;2022-08-30T03:54:32;9.25;;;5.82;;
7545;SDS011;3814;51.454;12.616;2022-08-30T03:56:57;10.05;;;6.15;;
7545;SDS011;3814;51.454;12.616;2022-08-30T03:59:22;9.75;;;6.47;;
7545;SDS011;3814;51.454;12.616;2022-08-30T04:01:48;14.55;;;7.28;;
7545;SDS011;3814;51.454;12.616;2022-08-30T04:04:13;10.73;;;6.57;;
7545;SDS011;3814;51.454;12.616;2022-08-30T04:06:39;10.35;;;6.60;;
7545;SDS011;3814;51.454;12.616;2022-08-30T04:09:04;10.07;;;6.10;;
7545;SDS011;3814;51.454;12.616;2022-08-30T04:11:30;10.63;;;6.88;;
7545;SDS011;3814;51.454;12.616;2022-08-30T04:13:56;10.73;;;6.00;;
7545;SDS011;3814;51.454;12.616;2022-08-30T04:16:21;11.65;;;6.15;;
7545;SDS011;3814;51.454;12.616;2022-08-30T04:18:48;11.05;;;6.80;;
7545;SDS011;3814;51.454;12.616;2022-08-30T04:21:13;10.35;;;5.95;;
7545;SDS011;3814;51.454;12.616;2022-08-30T04:23:39;13.27;;;7.07;;
7545;SDS011;3814;51.454;12.616;2022-08-30T04:26:05;12.00;;;6.70;;
7545;SDS011;3814;51.454;12.616;2022-08-30T04:28:30;11.20;;;6.97;;
7545;SDS011;3814;51.454;12.616;2022-08-30T04:30:55;16.13;;;8.30;;
7545;SDS011;3814;51.454;12.616;2022-08-30T04:33:21;13.23;;;7.93;;
7545;SDS011;3814;51.454;12.616;2022-08-30T04:35:47;12.43;;;7.82;;
7545;SDS011;3814;51.454;12.616;2022-08-30T04:38:14;10.23;;;6.85;;
7545;SDS011;3814;51.454;12.616;2022-08-30T04:40:41;16.02;;;8.15;;
7545;SDS011;3814;51.454;12.616;2022-08-30T04:43:07;15.13;;;8.38;;
7545;SDS011;3814;51.454;12.616;2022-08-30T04:45:33;14.05;;;8.65;;
7545;SDS011;3814;51.454;12.616;2022-08-30T04:47:58;16.40;;;9.30;;
7545;SDS011;3814;51.454;12.616;2022-08-30T04:50:23;14.95;;;8.75;;
7545;SDS011;3814;51.454;12.616;2022-08-30T04:52:49;16.98;;;8.48;;
7545;SDS011;3814;51.454;12.616;2022-08-30T04:55:14;14.15;;;8.65;;
7545;SDS011;3814;51.454;12.616;2022-08-30T04:57:40;16.30;;;9.68;;
7545;SDS011;3814;51.454;12.616;2022-08-30T05:00:07;20.05;;;9.48;;
7545;SDS011;3814;51.454;12.616;2022-08-30T05:02:40;17.35;;;9.52;;
7545;SDS011;3814;51.454;12.616;2022-08-30T05:05:06;19.70;;;10.38;;
7545;SDS011;3814;51.454;12.616;2022-08-30T05:07:51;17.27;;;8.63;;
7545;SDS011;3814;51.454;12.616;2022-08-30T05:10:16;16.42;;;9.35;;
7545;SDS011;3814;51.454;12.616;2022-08-30T05:12:41;17.23;;;9.27;;
7545;SDS011;3814;51.454;12.616;2022-08-30T05:15:07;16.65;;;9.30;;
7545;SDS011;3814;51.454;12.616;2022-08-30T05:17:35;13.40;;;8.23;;
7545;SDS011;3814;51.454;12.616;2022-08-30T05:20:01;15.55;;;9.43;;
7545;SDS011;3814;51.454;12.616;2022-08-30T05:22:26;16.45;;;7.97;;
7545;SDS011;3814;51.454;12.616;2022-08-30T05:24:52;14.40;;;8.10;;
7545;SDS011;3814;51.454;12.616;2022-08-30T05:27:17;15.38;;;8.45;;
7545;SDS011;3814;51.454;12.616;2022-08-30T05:29:42;17.15;;;8.45;;
7545;SDS011;3814;51.454;12.616;2022-08-30T05:32:08;11.95;;;7.55;;
7545;SDS011;3814;51.454;12.616;2022-08-30T05:34:33;13.63;;;7.40;;
7545;SDS011;3814;51.454;12.616;2022-08-30T05:36:58;13.05;;;7.95;;
7545;SDS011;3814;51.454;12.616;2022-08-30T05:39:24;12.93;;;7.25;;
7545;SDS011;3814;51.454;12.616;2022-08-30T05:41:49;12.35;;;7.30;;
7545;SDS011;3814;51.454;12.616;2022-08-30T05:44:14;14.15;;;7.85;;
7545;SDS011;3814;51.454;12.616;2022-08-30T05:46:39;11.98;;;6.82;;
7545;SDS011;3814;51.454;12.616;2022-08-30T05:49:09;12.63;;;7.43;;
7545;SDS011;3814;51.454;12.616;2022-08-30T05:51:35;10.88;;;6.80;;
7545;SDS011;3814;51.454;12.616;2022-08-30T05:54:02;10.82;;;6.05;;
7545;SDS011;3814;51.454;12.616;2022-08-30T05:56:32;12.43;;;7.65;;
7545;SDS011;3814;51.454;12.616;2022-08-30T05:58:59;15.73;;;8.30;;
7545;SDS011;3814;51.454;12.616;2022-08-30T06:01:27;12.93;;;7.57;;
7545;SDS011;3814;51.454;12.616;2022-08-30T06:03:54;14.57;;;8.38;;
7545;SDS011;3814;51.454;12.616;2022-08-30T06:06:20;15.18;;;7.95;;
7545;SDS011;3814;51.454;12.616;2022-08-30T06:08:46;17.85;;;8.95;;
7545;SDS011;3814;51.454;12.616;2022-08-30T06:11:12;15.65;;;8.80;;
7545;SDS011;3814;51.454;12.616;2022-08-30T06:13:39;12.75;;;7.05;;
7545;SDS011;3814;51.454;12.616;2022-08-30T06:16:05;17.70;;;8.32;;
7545;SDS011;3814;51.454;12.616;2022-08-30T06:18:31;13.35;;;7.88;;
7545;SDS011;3814;51.454;12.616;2022-08-30T06:20:56;12.93;;;7.47;;
7545;SDS011;3814;51.454;12.616;2022-08-30T06:23:22;12.80;;;7.65;;
7545;SDS011;3814;51.454;12.616;2022-08-30T06:25:47;12.23;;;7.28;;
7545;SDS011;3814;51.454;12.616;2022-08-30T06:28:13;12.98;;;7.00;;
7545;SDS011;3814;51.454;12.616;2022-08-30T06:30:39;14.68;;;8.00;;
7545;SDS011;3814;51.454;12.616;2022-08-30T06:33:06;12.60;;;7.00;;
7545;SDS011;3814;51.454;12.616;2022-08-30T06:35:31;13.50;;;7.88;;
7545;SDS011;3814;51.454;12.616;2022-08-30T06:37:57;14.68;;;8.15;;
7545;SDS011;3814;51.454;12.616;2022-08-30T06:40:22;12.73;;;7.43;;
7545;SDS011;3814;51.454;12.616;2022-08-30T06:42:48;15.13;;;8.13;;
7545;SDS011;3814;51.454;12.616;2022-08-30T06:45:14;15.15;;;7.68;;
7545;SDS011;3814;51.454;12.616;2022-08-30T06:47:40;16.67;;;8.07;;
7545;SDS011;3814;51.454;12.616;2022-08-30T06:50:05;15.80;;;8.10;;
7545;SDS011;3814;51.454;12.616;2022-08-30T06:52:31;13.93;;;7.65;;
7545;SDS011;3814;51.454;12.616;2022-08-30T06:54:56;17.27;;;8.73;;
7545;SDS011;3814;51.454;12.616;2022-08-30T06:57:23;14.00;;;8.80;;
7545;SDS011;3814;51.454;12.616;2022-08-30T06:59:48;14.52;;;8.32;;
7545;SDS011;3814;51.454;12.616;2022-08-30T07:02:14;14.90;;;8.48;;
7545;SDS011;3814;51.454;12.616;2022-08-30T07:04:39;14.43;;;7.72;;
7545;SDS011;3814;51.454;12.616;2022-08-30T07:07:04;15.50;;;8.52;;
7545;SDS011;3814;51.454;12.616;2022-08-30T07:09:30;17.65;;;8.68;;
7545;SDS011;3814;51.454;12.616;2022-08-30T07:11:55;14.25;;;8.07;;
7545;SDS011;3814;51.454;12.616;2022-08-30T07:14:25;12.70;;;7.82;;
7545;SDS011;3814;51.454;12.616;2022-08-30T07:16:51;15.90;;;8.15;;
7545;SDS011;3814;51.454;12.616;2022-08-30T07:19:16;15.45;;;7.78;;
7545;SDS011;3814;51.454;12.616;2022-08-30T07:21:42;15.18;;;8.05;;
7545;SDS011;3814;51.454;12.616;2022-08-30T07:24:07;12.65;;;7.05;;
7545;SDS011;3814;51.454;12.616;2022-08-30T07:26:37;13.65;;;7.70;;
7545;SDS011;3814;51.454;12.616;2022-08-30T07:29:07;9.75;;;6.55;;
7545;SDS011;3814;51.454;12.616;2022-08-30T07:31:33;10.95;;;6.72;;
7545;SDS011;3814;51.454;12.616;2022-08-30T07:34:00;12.55;;;7.20;;
7545;SDS011;3814;51.454;12.616;2022-08-30T07:36:29;11.43;;;7.00;;
7545;SDS011;3814;51.454;12.616;2022-08-30T07:38:54;9.95;;;5.88;;
7545;SDS011;3814;51.454;12.616;2022-08-30T07:41:24;11.00;;;6.40;;
7545;SDS011;3814;51.454;12.616;2022-08-30T07:43:51;13.88;;;7.15;;
7545;SDS011;3814;51.454;12.616;2022-08-30T07:46:17;12.38;;;6.85;;
7545;SDS011;3814;51.454;12.616;2022-08-30T07:48:43;11.73;;;6.85;;
7545;SDS011;3814;51.454;12.616;2022-08-30T07:51:09;12.70;;;6.53;;
7545;SDS011;3814;51.454;12.616;2022-08-30T07:53:35;13.57;;;6.05;;
7545;SDS011;3814;51.454;12.616;2022-08-30T07:56:01;9.43;;;5.72;;
7545;SDS011;3814;51.454;12.616;2022-08-30T07:58:26;9.82;;;6.15;;
7545;SDS011;3814;51.454;12.616;2022-08-30T08:00:52;10.88;;;6.10;;
7545;SDS011;3814;51.454;12.616;2022-08-30T08:03:17;13.00;;;6.85;;
7545;SDS011;3814;51.454;12.616;2022-08-30T08:05:43;11.63;;;6.18;;
7545;SDS011;3814;51.454;12.616;2022-08-30T08:08:09;10.05;;;6.13;;
7545;SDS011;3814;51.454;12.616;2022-08-30T08:10:36;9.68;;;6.20;;
7545;SDS011;3814;51.454;12.616;2022-08-30T08:13:03;12.52;;;6.10;;
7545;SDS011;3814;51.454;12.616;2022-08-30T08:15:28;13.77;;;6.47;;
7545;SDS011;3814;51.454;12.616;2022-08-30T08:17:54;11.10;;;5.78;;
7545;SDS011;3814;51.454;12.616;2022-08-30T08:20:19;8.50;;;5.40;;
7545;SDS011;3814;51.454;12.616;2022-08-30T08:22:44;9.43;;;4.85;;
7545;SDS011;3814;51.454;12.616;2022-08-30T08:25:10;10.05;;;5.47;;
7545;SDS011;3814;51.454;12.616;2022-08-30T08:27:35;9.57;;;4.80;;
7545;SDS011;3814;51.454;12.616;2022-08-30T08:30:00;10.18;;;5.63;;
7545;SDS011;3814;51.454;12.616;2022-08-30T08:32:26;9.73;;;5.63;;
7545;SDS011;3814;51.454;12.616;2022-08-30T08:34:51;8.25;;;5.00;;
7545;SDS011;3814;51.454;12.616;2022-08-30T08:37:16;8.73;;;5.15;;
7545;SDS011;3814;51.454;12.616;2022-08-30T08:39:42;11.80;;;6.25;;
7545;SDS011;3814;51.454;12.616;2022-08-30T08:42:14;9.82;;;6.03;;
7545;SDS011;3814;51.454;12.616;2022-08-30T08:49:55;11.18;;;6.43;;
7545;SDS011;3814;51.454;12.616;2022-08-30T08:52:28;13.05;;;7.28;;
7545;SDS011;3814;51.454;12.616;2022-08-30T08:55:19;11.18;;;6.15;;
7545;SDS011;3814;51.454;12.616;2022-08-30T08:57:46;10.50;;;6.03;;
7545;SDS011;3814;51.454;12.616;2022-08-30T09:00:12;13.23;;;5.70;;
7545;SDS011;3814;51.454;12.616;2022-08-30T09:02:39;7.50;;;4.95;;
7545;SDS011;3814;51.454;12.616;2022-08-30T09:05:06;10.55;;;5.05;;
7545;SDS011;3814;51.454;12.616;2022-08-30T09:07:37;9.48;;;4.70;;
7545;SDS011;3814;51.454;12.616;2022-08-30T09:10:04;7.63;;;4.57;;
7545;SDS011;3814;51.454;12.616;2022-08-30T09:12:30;9.75;;;4.32;;
7545;SDS011;3814;51.454;12.616;2022-08-30T09:17:47;7.93;;;4.85;;
7545;SDS011;3814;51.454;12.616;2022-08-30T09:20:19;6.95;;;4.43;;
7545;SDS011;3814;51.454;12.616;2022-08-30T09:22:48;7.57;;;3.92;;
7545;SDS011;3814;51.454;12.616;2022-08-30T09:25:27;8.95;;;3.40;;
7545;SDS011;3814;51.454;12.616;2022-08-30T09:27:54;6.95;;;3.28;;
7545;SDS011;3814;51.454;12.616;2022-08-30T09:30:33;6.47;;;3.10;;
7545;SDS011;3814;51.454;12.616;2022-08-30T09:33:03;6.70;;;3.25;;
7545;SDS011;3814;51.454;12.616;2022-08-30T09:38:23;8.27;;;3.67;;
7545;SDS011;3814;51.454;12.616;2022-08-30T09:40:55;9.68;;;3.88;;
7545;SDS011;3814;51.454;12.616;2022-08-30T09:53:42;6.57;;;3.50;;
7545;SDS011;3814;51.454;12.616;2022-08-30T09:59:23;6.18;;;3.03;;
7545;SDS011;3814;51.454;12.616;2022-08-30T10:05:10;7.57;;;3.33;;
7545;SDS011;3814;51.454;12.616;2022-08-30T10:10:29;6.13;;;3.53;;
7545;SDS011;3814;51.454;12.616;2022-08-30T10:15:55;6.63;;;3.80;;
7545;SDS011;3814;51.454;12.616;2022-08-30T10:18:33;7.97;;;3.47;;
7545;SDS011;3814;51.454;12.616;2022-08-30T10:21:06;6.97;;;3.67;;
7545;SDS011;3814;51.454;12.616;2022-08-30T10:23:36;6.63;;;3.38;;
7545;SDS011;3814;51.454;12.616;2022-08-30T10:26:10;6.65;;;4.10;;
7545;SDS011;3814;51.454;12.616;2022-08-30T10:28:59;6.32;;;4.20;;
7545;SDS011;3814;51.454;12.616;2022-08-30T10:34:12;7.05;;;3.72;;
7545;SDS011;3814;51.454;12.616;2022-08-30T10:36:42;6.72;;;3.70;;
7545;SDS011;3814;51.454;12.616;2022-08-30T10:39:09;7.05;;;3.97;;
7545;SDS011;3814;51.454;12.616;2022-08-30T10:41:42;5.53;;;4.00;;
7545;SDS011;3814;51.454;12.616;2022-08-30T10:44:26;7.68;;;4.90;;
7545;SDS011;3814;51.454;12.616;2022-08-30T10:49:44;7.22;;;4.90;;
7545;SDS011;3814;51.454;12.616;2022-08-30T10:57:12;7.25;;;4.65;;
7545;SDS011;3814;51.454;12.616;2022-08-30T10:59:41;8.10;;;4.63;;
7545;SDS011;3814;51.454;12.616;2022-08-30T11:05:30;8.00;;;4.72;;
7545;SDS011;3814;51.454;12.616;2022-08-30T11:10:36;7.25;;;4.43;;
7545;SDS011;3814;51.454;12.616;2022-08-30T11:13:25;8.00;;;5.00;;
7545;SDS011;3814;51.454;12.616;2022-08-30T11:16:04;6.95;;;4.60;;
7545;SDS011;3814;51.454;12.616;2022-08-30T11:18:32;8.23;;;4.90;;
7545;SDS011;3814;51.454;12.616;2022-08-30T11:21:20;9.50;;;5.15;;
7545;SDS011;3814;51.454;12.616;2022-08-30T11:27:10;6.82;;;4.43;;
7545;SDS011;3814;51.454;12.616;2022-08-30T11:29:37;7.18;;;4.53;;
7545;SDS011;3814;51.454;12.616;2022-08-30T11:40:05;7.25;;;4.53;;
7545;SDS011;3814;51.454;12.616;2022-08-30T11:42:32;8.60;;;4.93;;
7545;SDS011;3814;51.454;12.616;2022-08-30T11:47:47;7.25;;;4.75;;
7545;SDS011;3814;51.454;12.616;2022-08-30T11:52:49;6.53;;;4.10;;
7545;SDS011;3814;51.454;12.616;2022-08-30T11:55:24;6.40;;;4.32;;
7545;SDS011;3814;51.454;12.616;2022-08-30T12:00:40;7.75;;;4.22;;
7545;SDS011;3814;51.454;12.616;2022-08-30T12:08:09;6.38;;;4.28;;
7545;SDS011;3814;51.454;12.616;2022-08-30T12:10:48;5.35;;;3.80;;
7545;SDS011;3814;51.454;12.616;2022-08-30T12:16:02;6.50;;;4.40;;
7545;SDS011;3814;51.454;12.616;2022-08-30T12:24:03;6.25;;;4.43;;
7545;SDS011;3814;51.454;12.616;2022-08-30T12:26:38;7.43;;;4.45;;
7545;SDS011;3814;51.454;12.616;2022-08-30T12:29:08;7.28;;;5.50;;
7545;SDS011;3814;51.454;12.616;2022-08-30T12:31:38;12.02;;;5.78;;
7545;SDS011;3814;51.454;12.616;2022-08-30T12:34:04;8.85;;;5.70;;
7545;SDS011;3814;51.454;12.616;2022-08-30T12:39:08;7.78;;;5.43;;
7545;SDS011;3814;51.454;12.616;2022-08-30T12:41:38;8.93;;;5.68;;
7545;SDS011;3814;51.454;12.616;2022-08-30T12:44:04;8.82;;;5.78;;
7545;SDS011;3814;51.454;12.616;2022-08-30T12:46:33;8.65;;;6.32;;
7545;SDS011;3814;51.454;12.616;2022-08-30T12:48:58;8.50;;;6.00;;
7545;SDS011;3814;51.454;12.616;2022-08-30T12:51:29;9.57;;;6.22;;
7545;SDS011;3814;51.454;12.616;2022-08-30T12:54:04;11.60;;;6.57;;
7545;SDS011;3814;51.454;12.616;2022-08-30T13:02:23;9.40;;;6.60;;
7545;SDS011;3814;51.454;12.616;2022-08-30T13:04:51;8.35;;;6.50;;
7545;SDS011;3814;51.454;12.616;2022-08-30T13:09:49;9.73;;;6.15;;
7545;SDS011;3814;51.454;12.616;2022-08-30T13:12:24;10.38;;;5.90;;
7545;SDS011;3814;51.454;12.616;2022-08-30T13:14:50;8.93;;;6.22;;
7545;SDS011;3814;51.454;12.616;2022-08-30T13:19:42;9.57;;;6.10;;
7545;SDS011;3814;51.454;12.616;2022-08-30T13:22:23;9.75;;;5.80;;
7545;SDS011;3814;51.454;12.616;2022-08-30T13:24:58;8.23;;;5.75;;
7545;SDS011;3814;51.454;12.616;2022-08-30T13:27:25;9.05;;;5.70;;
7545;SDS011;3814;51.454;12.616;2022-08-30T13:29:52;8.60;;;5.40;;
7545;SDS011;3814;51.454;12.616;2022-08-30T13:32:17;7.60;;;4.97;;
7545;SDS011;3814;51.454;12.616;2022-08-30T13:34:43;8.00;;;5.25;;
7545;SDS011;3814;51.454;12.616;2022-08-30T13:37:09;9.77;;;4.80;;
7545;SDS011;3814;51.454;12.616;2022-08-30T13:39:38;8.45;;;4.65;;
7545;SDS011;3814;51.454;12.616;2022-08-30T13:42:05;7.53;;;4.60;;
7545;SDS011;3814;51.454;12.616;2022-08-30T13:44:30;7.60;;;4.65;;
7545;SDS011;3814;51.454;12.616;2022-08-30T13:46:56;8.98;;;4.88;;
7545;SDS011;3814;51.454;12.616;2022-08-30T13:49:23;8.13;;;4.70;;
7545;SDS011;3814;51.454;12.616;2022-08-30T13:51:52;7.25;;;4.20;;
7545;SDS011;3814;51.454;12.616;2022-08-30T13:54:18;6.45;;;4.40;;
7545;SDS011;3814;51.454;12.616;2022-08-30T13:56:46;8.15;;;4.55;;
7545;SDS011;3814;51.454;12.616;2022-08-30T13:59:13;12.00;;;5.18;;
7545;SDS011;3814;51.454;12.616;2022-08-30T14:01:38;8.48;;;4.93;;
7545;SDS011;3814;51.454;12.616;2022-08-30T14:04:03;6.22;;;4.38;;
7545;SDS011;3814;51.454;12.616;2022-08-30T14:06:28;8.73;;;5.15;;
7545;SDS011;3814;51.454;12.616;2022-08-30T14:08:54;8.50;;;4.78;;
7545;SDS011;3814;51.454;12.616;2022-08-30T14:11:19;6.70;;;4.80;;
7545;SDS011;3814;51.454;12.616;2022-08-30T14:13:45;7.18;;;4.50;;
7545;SDS011;3814;51.454;12.616;2022-08-30T14:16:11;7.68;;;5.32;;
7545;SDS011;3814;51.454;12.616;2022-08-30T14:18:36;7.97;;;4.60;;
7545;SDS011;3814;51.454;12.616;2022-08-30T14:21:02;6.93;;;4.90;;
7545;SDS011;3814;51.454;12.616;2022-08-30T14:23:27;10.40;;;5.20;;
7545;SDS011;3814;51.454;12.616;2022-08-30T14:25:53;7.97;;;4.65;;
7545;SDS011;3814;51.454;12.616;2022-08-30T14:28:18;6.85;;;4.72;;
7545;SDS011;3814;51.454;12.616;2022-08-30T14:30:44;7.72;;;4.57;;
7545;SDS011;3814;51.454;12.616;2022-08-30T14:33:10;5.95;;;4.50;;
7545;SDS011;3814;51.454;12.616;2022-08-30T14:35:35;9.57;;;4.43;;
7545;SDS011;3814;51.454;12.616;2022-08-30T14:38:00;7.03;;;4.35;;
7545;SDS011;3814;51.454;12.616;2022-08-30T14:40:25;6.53;;;4.50;;
7545;SDS011;3814;51.454;12.616;2022-08-30T14:42:51;7.30;;;4.30;;
7545;SDS011;3814;51.454;12.616;2022-08-30T14:45:16;6.07;;;4.22;;
7545;SDS011;3814;51.454;12.616;2022-08-30T14:47:42;6.32;;;4.43;;
7545;SDS011;3814;51.454;12.616;2022-08-30T14:50:07;6.43;;;4.05;;
7545;SDS011;3814;51.454;12.616;2022-08-30T14:52:32;6.88;;;4.13;;
7545;SDS011;3814;51.454;12.616;2022-08-30T14:54:59;6.72;;;3.92;;
7545;SDS011;3814;51.454;12.616;2022-08-30T14:57:25;6.18;;;3.88;;
7545;SDS011;3814;51.454;12.616;2022-08-30T14:59:50;5.22;;;4.20;;
7545;SDS011;3814;51.454;12.616;2022-08-30T15:02:16;5.22;;;3.50;;
7545;SDS011;3814;51.454;12.616;2022-08-30T15:04:42;7.78;;;3.55;;
7545;SDS011;3814;51.454;12.616;2022-08-30T15:07:07;5.68;;;3.80;;
7545;SDS011;3814;51.454;12.616;2022-08-30T15:09:32;5.00;;;3.58;;
7545;SDS011;3814;51.454;12.616;2022-08-30T15:11:58;4.80;;;3.08;;
7545;SDS011;3814;51.454;12.616;2022-08-30T15:14:25;5.65;;;2.92;;
7545;SDS011;3814;51.454;12.616;2022-08-30T15:16:52;4.70;;;2.92;;
7545;SDS011;3814;51.454;12.616;2022-08-30T15:19:18;4.72;;;3.00;;
7545;SDS011;3814;51.454;12.616;2022-08-30T15:21:44;5.75;;;2.90;;
7545;SDS011;3814;51.454;12.616;2022-08-30T15:24:12;3.88;;;2.83;;
7545;SDS011;3814;51.454;12.616;2022-08-30T15:26:39;3.63;;;2.67;;
7545;SDS011;3814;51.454;12.616;2022-08-30T15:29:07;5.18;;;2.80;;
7545;SDS011;3814;51.454;12.616;2022-08-30T15:31:37;3.45;;;2.72;;
7545;SDS011;3814;51.454;12.616;2022-08-30T15:34:04;3.80;;;2.80;;
7545;SDS011;3814;51.454;12.616;2022-08-30T15:36:30;3.88;;;2.67;;
7545;SDS011;3814;51.454;12.616;2022-08-30T15:38:56;9.77;;;3.10;;
7545;SDS011;3814;51.454;12.616;2022-08-30T15:41:23;6.28;;;2.80;;
7545;SDS011;3814;51.454;12.616;2022-08-30T15:43:48;3.90;;;2.80;;
7545;SDS011;3814;51.454;12.616;2022-08-30T15:48:54;4.38;;;2.90;;
7545;SDS011;3814;51.454;12.616;2022-08-30T15:51:21;4.00;;;2.72;;
7545;SDS011;3814;51.454;12.616;2022-08-30T15:53:47;3.75;;;2.90;;
7545;SDS011;3814;51.454;12.616;2022-08-30T15:56:12;4.18;;;2.45;;
7545;SDS011;3814;51.454;12.616;2022-08-30T15:58:38;3.65;;;2.53;;
7545;SDS011;3814;51.454;12.616;2022-08-30T16:01:04;5.43;;;2.70;;
7545;SDS011;3814;51.454;12.616;2022-08-30T16:03:30;3.55;;;2.80;;
7545;SDS011;3814;51.454;12.616;2022-08-30T16:05:56;3.22;;;2.58;;
7545;SDS011;3814;51.454;12.616;2022-08-30T16:08:22;6.35;;;2.47;;
7545;SDS011;3814;51.454;12.616;2022-08-30T16:10:47;3.75;;;2.42;;
7545;SDS011;3814;51.454;12.616;2022-08-30T16:13:13;4.45;;;2.65;;
7545;SDS011;3814;51.454;12.616;2022-08-30T16:15:39;3.90;;;2.40;;
7545;SDS011;3814;51.454;12.616;2022-08-30T16:18:04;4.25;;;2.50;;
7545;SDS011;3814;51.454;12.616;2022-08-30T16:20:30;4.28;;;2.60;;
7545;SDS011;3814;51.454;12.616;2022-08-30T16:22:56;4.68;;;2.38;;
7545;SDS011;3814;51.454;12.616;2022-08-30T16:25:21;3.40;;;2.60;;
7545;SDS011;3814;51.454;12.616;2022-08-30T16:27:47;4.38;;;2.60;;
7545;SDS011;3814;51.454;12.616;2022-08-30T16:30:12;5.88;;;2.50;;